Time;durP1;ratioP1;P1;durP2;ratioP2;P2;SDS_P1;SDS_P2;PMS_P1;PMS_P2;Temp;Humidity;BMP_temperature;BMP_pressure;BME280_temperature;BME280_humidity;BME280_pressure;Samples;Min_cycle;Max_cycle;Signal;HPM_P1;HPM_P2
2022/03/10 00:01:29;;;;;;;34.53;18.27;;;2.30;81.10;;;;;;4963195;28;20085;-78
2022/03/10 00:03:56;;;;;;;34.90;17.65;;;2.30;81.80;;;;;;4963389;29;20329;-79
2022/03/10 00:06:21;;;;;;;34.80;17.27;;;2.30;81.40;;;;;;4963499;29;20039;-80
2022/03/10 00:08:47;;;;;;;35.22;18.33;;;2.30;80.90;;;;;;4946852;29;20031;-79
2022/03/10 00:11:13;;;;;;;39.83;18.23;;;2.30;81.00;;;;;;4946368;29;20444;-79
2022/03/10 00:13:39;;;;;;;34.45;18.05;;;2.30;81.50;;;;;;4947025;29;20090;-79
2022/03/10 00:16:04;;;;;;;38.30;19.63;;;2.30;80.80;;;;;;4963099;28;20070;-81
2022/03/10 00:18:30;;;;;;;40.03;18.05;;;2.30;81.20;;;;;;4963789;29;20043;-78
2022/03/10 00:20:56;;;;;;;37.00;18.85;;;2.20;80.90;;;;;;4967791;28;20037;-78
2022/03/10 00:23:21;;;;;;;39.72;18.15;;;2.20;81.60;;;;;;4970440;29;20269;-80
2022/03/10 00:25:50;;;;;;;37.28;17.98;;;2.20;81.40;;;;;;4969284;29;20031;-80
2022/03/10 00:28:18;;;;;;;33.55;17.45;;;2.20;81.20;;;;;;4953178;29;20067;-80
2022/03/10 00:31:11;;;;;;;35.72;18.02;;;2.10;80.70;;;;;;4969578;28;20043;-80
2022/03/10 00:33:37;;;;;;;37.80;18.15;;;2.20;80.80;;;;;;4953059;29;20047;-79
2022/03/10 00:36:02;;;;;;;37.40;18.15;;;2.10;80.90;;;;;;4952443;29;20066;-79
2022/03/10 00:38:28;;;;;;;41.13;19.40;;;2.10;81.90;;;;;;4970153;28;20042;-79
2022/03/10 00:40:58;;;;;;;34.72;18.65;;;2.00;82.10;;;;;;4953206;29;20094;-81
2022/03/10 00:44:01;;;;;;;35.75;18.50;;;1.90;82.10;;;;;;4970213;29;20079;-79
2022/03/10 00:46:28;;;;;;;37.92;18.38;;;1.90;82.50;;;;;;4968029;29;20114;-78
2022/03/10 00:48:53;;;;;;;36.33;18.23;;;1.90;82.10;;;;;;4952868;29;20086;-78
2022/03/10 00:51:19;;;;;;;36.92;17.15;;;1.90;82.00;;;;;;4952134;29;20035;-78
2022/03/10 00:53:45;;;;;;;38.15;18.30;;;1.90;82.10;;;;;;4970275;29;20042;-79
2022/03/10 00:56:14;;;;;;;42.72;19.08;;;1.90;82.00;;;;;;4969666;28;20095;-79
2022/03/10 00:58:45;;;;;;;37.88;19.15;;;1.90;81.80;;;;;;4970050;28;20019;-79
2022/03/10 01:01:11;;;;;;;38.08;18.60;;;1.80;82.80;;;;;;4968889;28;20039;-79
2022/03/10 01:03:37;;;;;;;36.35;19.00;;;1.70;83.70;;;;;;4969681;29;20031;-79
2022/03/10 01:06:06;;;;;;;33.55;16.77;;;1.60;83.90;;;;;;4952131;29;20023;-80
2022/03/10 01:08:35;;;;;;;38.67;19.33;;;1.60;83.90;;;;;;4936888;29;20027;-80
2022/03/10 01:11:01;;;;;;;35.85;18.17;;;1.60;83.80;;;;;;4952065;29;20026;-80
2022/03/10 01:13:26;;;;;;;37.90;18.60;;;1.60;83.40;;;;;;4969378;29;20034;-79
2022/03/10 01:16:01;;;;;;;33.78;17.60;;;1.60;84.00;;;;;;4969928;29;20031;-80
2022/03/10 01:18:27;;;;;;;36.15;17.90;;;1.50;84.10;;;;;;4969535;29;20023;-80
2022/03/10 01:20:53;;;;;;;38.67;17.83;;;1.50;84.10;;;;;;4968895;29;20258;-80
2022/03/10 01:23:21;;;;;;;34.65;16.35;;;1.40;84.40;;;;;;4969097;28;20031;-79
2022/03/10 01:25:50;;;;;;;33.63;16.98;;;1.40;84.20;;;;;;4968661;29;20086;-80
2022/03/10 01:28:27;;;;;;;38.15;16.67;;;1.50;83.80;;;;;;4969714;29;20042;-80
2022/03/10 01:30:53;;;;;;;37.20;17.38;;;1.50;83.70;;;;;;4966969;28;20050;-80
2022/03/10 01:33:19;;;;;;;29.90;16.05;;;1.40;84.40;;;;;;4932865;29;20042;-79
2022/03/10 01:35:48;;;;;;;35.25;17.67;;;1.40;83.70;;;;;;4965799;29;20110;-80
2022/03/10 01:38:39;;;;;;;35.47;16.92;;;1.30;84.20;;;;;;4934311;29;20207;-80
2022/03/10 01:41:08;;;;;;;32.45;16.17;;;1.30;84.30;;;;;;4966082;29;20035;-79
2022/03/10 01:44:01;;;;;;;31.92;16.45;;;1.20;84.20;;;;;;4966463;29;20023;-79
2022/03/10 01:50:16;;;;;;;31.15;15.35;;;1.20;83.40;;;;;;4965600;29;20078;-80
2022/03/10 01:52:43;;;;;;;30.48;15.30;;;1.20;83.40;;;;;;4966219;29;20042;-80
2022/03/10 01:55:09;;;;;;;31.30;14.95;;;1.20;83.40;;;;;;4965792;29;20310;-79
2022/03/10 01:57:36;;;;;;;31.35;15.70;;;1.20;83.60;;;;;;4966591;29;20024;-79
2022/03/10 02:00:07;;;;;;;30.08;15.65;;;1.20;83.50;;;;;;4950187;29;20058;-79
2022/03/10 02:02:33;;;;;;;29.02;15.02;;;1.20;83.40;;;;;;4971883;28;20030;-79
2022/03/10 02:04:59;;;;;;;29.27;15.27;;;1.10;83.90;;;;;;4979132;28;20031;-80
2022/03/10 02:10:19;;;;;;;32.13;15.75;;;1.10;84.10;;;;;;4966647;29;20054;-81
2022/03/10 02:12:46;;;;;;;29.35;15.10;;;1.10;84.40;;;;;;4965089;29;20263;-80
2022/03/10 02:18:17;;;;;;;29.75;15.48;;;1.10;84.70;;;;;;4957960;29;20623;-80
2022/03/10 02:20:43;;;;;;;31.70;16.55;;;1.00;85.20;;;;;;4946902;29;20034;-79
2022/03/10 02:23:11;;;;;;;29.27;15.77;;;0.90;85.40;;;;;;4946198;29;20027;-80
2022/03/10 02:25:41;;;;;;;31.70;16.20;;;0.90;86.10;;;;;;4929720;29;20019;-79
2022/03/10 02:28:07;;;;;;;30.67;15.70;;;0.90;86.50;;;;;;4944942;29;20099;-80
2022/03/10 02:30:34;;;;;;;30.17;16.45;;;0.80;86.40;;;;;;4944921;29;20099;-79
2022/03/10 02:33:01;;;;;;;30.35;15.55;;;0.80;87.10;;;;;;4929384;29;20333;-80
2022/03/10 02:35:27;;;;;;;33.80;16.05;;;0.80;86.40;;;;;;4956618;29;20034;-80
2022/03/10 02:37:52;;;;;;;29.70;14.55;;;0.70;85.90;;;;;;4967451;29;20139;-79
2022/03/10 02:40:18;;;;;;;28.70;15.30;;;0.70;85.50;;;;;;4951230;29;20094;-80
2022/03/10 02:42:44;;;;;;;26.55;13.77;;;0.70;86.10;;;;;;4952093;29;20060;-79
2022/03/10 02:45:11;;;;;;;30.17;14.73;;;0.70;85.70;;;;;;4949211;29;20019;-80
2022/03/10 02:47:37;;;;;;;30.20;14.88;;;0.70;85.60;;;;;;4965986;29;20203;-80
2022/03/10 02:50:09;;;;;;;;;;;0.70;86.00;;;;;;4966189;29;20039;-80
2022/03/10 02:52:43;;;;;;;30.77;15.45;;;0.60;86.30;;;;;;4937074;29;19938;-79
2022/03/10 02:55:15;;;;;;;29.00;14.40;;;0.60;86.10;;;;;;4964755;29;20045;-80
2022/03/10 02:57:41;;;;;;;32.95;14.25;;;0.50;86.20;;;;;;4965146;29;20061;-80
2022/03/10 03:00:32;;;;;;;30.25;15.27;;;0.50;87.30;;;;;;4964599;29;20282;-81
2022/03/10 03:03:01;;;;;;;30.40;14.63;;;0.40;87.30;;;;;;4964954;29;20035;-80
2022/03/10 03:05:27;;;;;;;30.10;16.20;;;0.30;87.60;;;;;;4947053;29;20114;-80
2022/03/10 03:07:52;;;;;;;29.23;14.65;;;0.30;87.90;;;;;;4964792;29;20039;-80
2022/03/10 03:10:18;;;;;;;34.65;16.88;;;0.20;88.30;;;;;;4964192;29;20035;-80
2022/03/10 03:12:52;;;;;;;29.38;14.82;;;0.20;88.80;;;;;;4947642;29;20310;-80
2022/03/10 03:15:19;;;;;;;33.58;15.50;;;0.20;89.10;;;;;;4964492;29;20031;-80
2022/03/10 03:17:45;;;;;;;29.48;15.55;;;0.20;89.00;;;;;;4931721;29;20049;-80
2022/03/10 03:20:14;;;;;;;28.55;15.00;;;0.20;88.30;;;;;;4946964;29;20214;-80
2022/03/10 03:22:42;;;;;;;30.35;14.23;;;0.20;88.60;;;;;;4931909;29;20033;-79
2022/03/10 03:25:09;;;;;;;33.10;15.20;;;0.20;88.50;;;;;;4963893;29;20094;-80
2022/03/10 03:27:35;;;;;;;30.98;15.45;;;0.20;88.20;;;;;;4964777;29;20050;-79
2022/03/10 03:30:02;;;;;;;29.48;14.77;;;0.20;87.80;;;;;;4964537;29;20042;-80
2022/03/10 03:32:27;;;;;;;30.25;15.50;;;0.20;87.60;;;;;;4962610;28;20070;-79
2022/03/10 03:34:53;;;;;;;30.25;14.85;;;0.20;88.10;;;;;;4964285;29;20031;-79
2022/03/10 03:37:20;;;;;;;30.52;15.93;;;0.20;88.10;;;;;;4946687;29;20049;-79
2022/03/10 03:39:46;;;;;;;32.42;15.20;;;0.20;88.40;;;;;;4964342;29;20126;-79
2022/03/10 03:42:11;;;;;;;30.60;16.27;;;0.20;88.20;;;;;;4963558;29;20038;-78
2022/03/10 03:44:55;;;;;;;30.95;15.18;;;0.10;88.50;;;;;;4964018;29;20023;-78
2022/03/10 03:47:21;;;;;;;28.90;14.80;;;0.00;88.30;;;;;;4962340;29;20069;-80
2022/03/10 03:49:47;;;;;;;30.40;15.35;;;0.00;88.00;;;;;;4963059;29;20079;-78
2022/03/10 03:52:13;;;;;;;31.27;15.02;;;0.10;87.80;;;;;;4963844;29;20035;-79
2022/03/10 03:58:26;;;;;;;;;;;0.00;87.60;;;;;;4964251;29;20018;-79
2022/03/10 04:00:52;;;;;;;33.50;15.60;;;0.00;87.70;;;;;;4963912;29;19911;-80
2022/03/10 04:03:26;;;;;;;30.20;15.20;;;0.00;88.90;;;;;;4963710;29;20306;-79
2022/03/10 04:05:52;;;;;;;31.42;14.95;;;-0.20;89.50;;;;;;4964135;29;20111;-79
2022/03/10 04:08:21;;;;;;;29.35;15.30;;;-0.20;89.50;;;;;;4963530;29;20027;-79
2022/03/10 04:10:46;;;;;;;29.00;14.18;;;-0.10;89.10;;;;;;4946684;29;20286;-79
2022/03/10 04:13:12;;;;;;;30.48;14.13;;;-0.20;89.30;;;;;;4946297;29;20038;-79
2022/03/10 04:15:38;;;;;;;32.70;15.32;;;-0.10;89.30;;;;;;4963647;29;20062;-79
2022/03/10 04:18:04;;;;;;;28.02;14.48;;;-0.10;89.70;;;;;;4957785;29;20336;-79
2022/03/10 04:20:30;;;;;;;31.10;14.57;;;-0.10;89.30;;;;;;4943206;29;20035;-80
2022/03/10 04:22:56;;;;;;;30.27;14.43;;;-0.20;89.40;;;;;;4943530;29;20036;-80
2022/03/10 04:25:22;;;;;;;29.88;14.88;;;-0.20;89.10;;;;;;4942711;29;20028;-80
2022/03/10 04:27:49;;;;;;;28.27;14.75;;;-0.20;89.20;;;;;;4944614;29;20027;-79
2022/03/10 04:30:27;;;;;;;31.25;15.95;;;-0.20;89.60;;;;;;4943857;29;20044;-80
2022/03/10 04:32:53;;;;;;;30.75;15.68;;;-0.20;89.60;;;;;;4944203;29;20116;-80
2022/03/10 04:35:19;;;;;;;28.88;14.20;;;-0.20;89.50;;;;;;4926627;29;20028;-79
2022/03/10 04:38:08;;;;;;;32.47;16.42;;;-0.20;88.90;;;;;;4926707;29;20237;-79
2022/03/10 04:40:37;;;;;;;32.72;16.30;;;-0.20;88.90;;;;;;4927283;29;20034;-79
2022/03/10 04:43:03;;;;;;;32.30;15.98;;;-0.30;90.00;;;;;;4943254;29;20015;-79
2022/03/10 04:45:29;;;;;;;29.42;15.18;;;-0.30;89.80;;;;;;4942558;29;20019;-80
2022/03/10 04:47:55;;;;;;;30.77;14.73;;;-0.30;89.40;;;;;;4944198;29;20055;-80
2022/03/10 04:50:24;;;;;;;28.73;14.10;;;-0.30;89.20;;;;;;4942558;29;20293;-80
2022/03/10 04:53:15;;;;;;;29.60;14.95;;;-0.40;89.80;;;;;;4930457;29;20048;-81
2022/03/10 04:55:41;;;;;;;32.78;15.85;;;-0.40;90.10;;;;;;4943322;29;20035;-80
2022/03/10 04:58:08;;;;;;;27.58;13.77;;;-0.40;90.20;;;;;;4927226;29;20035;-80
2022/03/10 05:00:52;;;;;;;27.98;14.48;;;-0.50;90.10;;;;;;4943725;29;20210;-80
2022/03/10 05:03:18;;;;;;;29.58;14.32;;;-0.50;90.00;;;;;;4942319;29;20103;-80
2022/03/10 05:05:46;;;;;;;35.17;15.40;;;-0.50;89.90;;;;;;4945108;29;20314;-79
2022/03/10 05:08:12;;;;;;;31.30;14.80;;;-0.40;90.40;;;;;;4947204;29;20136;-80
2022/03/10 05:10:38;;;;;;;30.15;14.18;;;-0.50;90.40;;;;;;4946145;29;20069;-80
2022/03/10 05:13:04;;;;;;;33.22;15.70;;;-0.50;90.20;;;;;;4946181;29;20277;-80
2022/03/10 05:15:33;;;;;;;31.75;15.15;;;-0.50;90.50;;;;;;4945580;29;20066;-80
2022/03/10 05:18:04;;;;;;;33.60;16.90;;;-0.50;90.40;;;;;;4933698;29;20098;-80
2022/03/10 05:20:36;;;;;;;29.80;14.95;;;-0.50;90.40;;;;;;4966451;29;20057;-80
2022/03/10 05:23:03;;;;;;;33.67;15.85;;;-0.50;90.50;;;;;;4966692;29;20039;-80
2022/03/10 05:25:47;;;;;;;35.85;17.65;;;-0.60;90.60;;;;;;4966184;29;20027;-80
2022/03/10 05:28:14;;;;;;;38.88;17.27;;;-0.50;90.90;;;;;;4951887;29;20098;-80
2022/03/10 05:30:45;;;;;;;38.05;18.50;;;-0.50;90.80;;;;;;4971416;29;20152;-79
2022/03/10 05:33:12;;;;;;;35.65;17.58;;;-0.60;90.50;;;;;;4945449;28;20062;-79
2022/03/10 05:35:38;;;;;;;33.75;17.25;;;-0.60;90.30;;;;;;4962158;28;20058;-79
2022/03/10 05:42:53;;;;;;;34.55;17.08;;;-0.60;90.30;;;;;;4849513;29;20051;-79
2022/03/10 05:45:57;;;;;;;38.97;17.50;;;-0.70;90.40;;;;;;4875639;29;20081;-80
2022/03/10 05:49:02;;;;;;;29.88;15.73;;;-0.70;90.20;;;;;;4888277;29;20238;-79
2022/03/10 05:54:25;;;;;;;32.88;15.95;;;-0.80;90.80;;;;;;4871739;29;20032;-78
2022/03/10 06:12:30;;;;;;;33.65;16.02;;;-0.70;90.70;;;;;;4888033;29;20055;-80
2022/03/10 06:15:07;;;;;;;32.28;15.25;;;-0.50;90.30;;;;;;4888252;29;20137;-80
2022/03/10 06:17:41;;;;;;;31.25;15.77;;;-0.40;90.00;;;;;;4882545;29;20075;-78
2022/03/10 06:20:11;;;;;;;34.75;17.15;;;-0.30;90.20;;;;;;4967312;29;20079;-78
2022/03/10 06:22:38;;;;;;;32.95;16.67;;;-0.20;90.30;;;;;;4968525;29;20111;-79
2022/03/10 06:25:05;;;;;;;33.78;17.48;;;-0.20;89.90;;;;;;4965924;29;20030;-79
2022/03/10 06:27:30;;;;;;;34.22;17.52;;;-0.10;90.00;;;;;;4948135;29;20046;-78
2022/03/10 06:29:56;;;;;;;36.13;17.27;;;0.00;90.10;;;;;;4965471;29;20031;-78
2022/03/10 06:32:26;;;;;;;31.77;16.35;;;0.10;89.70;;;;;;4965492;28;20253;-78
2022/03/10 06:34:56;;;;;;;33.35;17.52;;;0.30;89.40;;;;;;4965725;29;20171;-78
2022/03/10 06:37:28;;;;;;;38.50;17.85;;;0.30;88.80;;;;;;4944808;29;20114;-79
2022/03/10 06:39:57;;;;;;;34.28;17.08;;;0.40;87.60;;;;;;4929168;29;20336;-79
2022/03/10 06:48:23;;;;;;;;;;;0.60;85.60;;;;;;4914063;29;20071;-80
2022/03/10 06:50:52;;;;;;;38.13;17.33;;;0.70;84.80;;;;;;4946334;29;20074;-80
2022/03/10 06:54:00;;;;;;;34.63;17.23;;;0.80;84.50;;;;;;4947126;29;20100;-80
2022/03/10 06:57:29;;;;;;;;;;;;;;;;;;;;;
2022/03/10 07:01:43;;;;;;;;;;;;;;;;;;;;;
2022/03/10 07:04:40;;;;;;;34.05;16.83;;;1.30;83.40;;;;;;4868422;29;20139;-81
2022/03/10 07:07:07;;;;;;;33.25;16.95;;;1.40;83.50;;;;;;4869859;28;20049;-79
2022/03/10 07:09:33;;;;;;;37.95;17.73;;;1.70;85.50;;;;;;4947914;29;20056;-78
2022/03/10 07:12:00;;;;;;;39.92;19.30;;;1.70;82.60;;;;;;4965289;29;20022;-79
2022/03/10 07:14:26;;;;;;;42.10;19.38;;;1.80;82.80;;;;;;4948624;29;20039;-80
2022/03/10 07:16:52;;;;;;;37.70;18.25;;;2.10;82.60;;;;;;4964869;28;20187;-79
2022/03/10 07:19:18;;;;;;;35.47;18.35;;;2.20;81.20;;;;;;4949008;29;20164;-78
2022/03/10 07:21:44;;;;;;;41.22;18.27;;;2.20;79.30;;;;;;4932714;29;20027;-79
2022/03/10 07:24:11;;;;;;;35.70;17.30;;;2.40;79.80;;;;;;4965255;29;20383;-78
2022/03/10 07:26:37;;;;;;;36.25;17.77;;;2.70;79.80;;;;;;4964852;29;20027;-77
2022/03/10 07:29:03;;;;;;;35.92;16.92;;;2.80;78.40;;;;;;4963901;28;20055;-76
2022/03/10 07:31:30;;;;;;;31.65;17.30;;;2.90;78.00;;;;;;4963586;28;20341;-77
2022/03/10 07:33:56;;;;;;;34.60;17.30;;;3.00;77.10;;;;;;4947484;29;20082;-77
2022/03/10 07:36:22;;;;;;;33.00;17.50;;;3.10;78.00;;;;;;4964256;29;20031;-78
2022/03/10 07:38:48;;;;;;;33.85;16.77;;;3.10;75.90;;;;;;4965055;29;20226;-77
2022/03/10 07:41:14;;;;;;;34.38;17.88;;;3.20;76.40;;;;;;4964550;29;20031;-77
2022/03/10 07:43:39;;;;;;;33.65;17.30;;;3.30;75.50;;;;;;4964695;29;20074;-78
2022/03/10 07:46:06;;;;;;;32.50;17.17;;;3.30;74.80;;;;;;4964497;28;20050;-78
2022/03/10 07:48:33;;;;;;;35.40;18.20;;;3.50;74.60;;;;;;4964999;29;20031;-76
2022/03/10 07:51:00;;;;;;;34.70;16.92;;;3.50;74.40;;;;;;4947954;29;20364;-77
2022/03/10 07:53:26;;;;;;;35.10;17.70;;;3.60;74.40;;;;;;4964113;29;20028;-77
2022/03/10 07:55:55;;;;;;;33.58;16.95;;;3.70;74.10;;;;;;4964810;29;20153;-77
2022/03/10 07:58:23;;;;;;;37.05;19.58;;;3.80;74.50;;;;;;4963338;29;20098;-77
2022/03/10 08:00:51;;;;;;;39.00;19.40;;;3.90;74.00;;;;;;4964145;28;20042;-78
2022/03/10 08:03:16;;;;;;;40.88;20.08;;;4.00;73.90;;;;;;4923784;29;20050;-77
2022/03/10 08:05:44;;;;;;;39.15;19.65;;;4.00;73.20;;;;;;4945008;29;20032;-78
2022/03/10 08:09:06;;;;;;;34.72;18.42;;;4.00;73.50;;;;;;4949325;29;20019;-78
2022/03/10 08:12:25;;;;;;;35.80;18.10;;;4.20;74.00;;;;;;4883296;29;20093;-77
2022/03/10 08:14:51;;;;;;;36.95;19.05;;;4.50;73.50;;;;;;4883175;29;20153;-77
2022/03/10 09:14:28;;;;;;;28.55;14.25;;;7.30;66.60;;;;;;4957423;28;20042;-79
2022/03/10 09:23:53;;;;;;;26.13;14.55;;;7.90;66.10;;;;;;4954654;29;20038;-82
2022/03/10 09:26:28;;;;;;;27.58;14.32;;;8.00;65.30;;;;;;4917709;29;20035;-80
2022/03/10 09:28:55;;;;;;;27.40;15.52;;;8.20;65.10;;;;;;4915652;29;20100;-81
2022/03/10 09:31:34;;;;;;;24.52;13.88;;;8.30;65.00;;;;;;4914941;29;20071;-80
2022/03/10 09:34:04;;;;;;;29.80;15.07;;;8.40;64.40;;;;;;4931002;29;20043;-81
2022/03/10 09:36:33;;;;;;;29.77;15.10;;;8.60;64.30;;;;;;4930227;29;20031;-81
2022/03/10 09:42:34;;;;;;;24.15;13.00;;;8.90;63.80;;;;;;4947550;29;20202;-80
2022/03/10 09:45:39;;;;;;;24.50;14.32;;;9.00;63.10;;;;;;4931299;29;20031;-81
2022/03/10 09:48:26;;;;;;;26.60;14.57;;;9.10;63.00;;;;;;4904077;29;20046;-81
2022/03/10 09:50:59;;;;;;;24.30;14.40;;;9.30;64.30;;;;;;4892276;29;20402;-80
2022/03/10 09:53:40;;;;;;;24.80;13.70;;;9.40;62.80;;;;;;4907421;29;20107;-81
2022/03/10 09:56:09;;;;;;;30.25;15.32;;;9.50;62.70;;;;;;4874638;29;20037;-81
2022/03/10 09:59:44;;;;;;;28.00;14.63;;;9.60;62.40;;;;;;4873043;29;20023;-80
2022/03/10 10:02:27;;;;;;;25.75;14.25;;;9.70;63.30;;;;;;4781676;29;20080;-79
2022/03/10 10:04:56;;;;;;;24.27;13.20;;;9.90;63.10;;;;;;4815628;29;20049;-80
2022/03/10 10:07:27;;;;;;;25.48;14.23;;;9.90;61.70;;;;;;4799853;29;20463;-80
2022/03/10 10:09:56;;;;;;;21.90;12.20;;;9.90;61.40;;;;;;4800144;29;20037;-79
2022/03/10 10:16:13;;;;;;;21.80;12.20;;;10.00;61.20;;;;;;4889028;29;20048;-79
2022/03/10 10:18:40;;;;;;;24.95;13.10;;;10.40;61.10;;;;;;4890967;29;20255;-79
2022/03/10 10:21:47;;;;;;;32.10;12.60;;;10.50;60.40;;;;;;4900700;29;20043;-79
2022/03/10 10:24:18;;;;;;;23.55;12.85;;;10.70;60.70;;;;;;4930982;29;20043;-79
2022/03/10 10:26:46;;;;;;;23.70;12.65;;;10.80;60.30;;;;;;4914225;29;20036;-80
2022/03/10 10:29:59;;;;;;;30.83;13.07;;;10.90;59.60;;;;;;4931156;29;20103;-81
2022/03/10 10:32:59;;;;;;;27.80;11.55;;;11.00;59.90;;;;;;4929681;29;20048;-80
2022/03/10 10:35:32;;;;;;;19.77;10.20;;;11.30;59.30;;;;;;4914382;29;20047;-80
2022/03/10 10:38:01;;;;;;;17.33;9.52;;;11.50;58.30;;;;;;4930112;29;20031;-80
2022/03/10 10:40:28;;;;;;;15.60;8.77;;;11.70;58.40;;;;;;4923774;29;20038;-81
2022/03/10 10:43:03;;;;;;;16.08;9.85;;;11.80;57.00;;;;;;4923628;29;20032;-80
2022/03/10 10:45:57;;;;;;;15.32;9.23;;;12.00;57.40;;;;;;4956151;28;20047;-80
2022/03/10 10:48:23;;;;;;;16.20;8.63;;;12.20;57.50;;;;;;4948882;29;20035;-80
2022/03/10 10:50:48;;;;;;;14.95;8.68;;;12.40;56.70;;;;;;4949023;29;20069;-79
2022/03/10 10:53:32;;;;;;;13.30;7.55;;;12.70;56.10;;;;;;4954050;29;20023;-80
2022/03/10 10:55:59;;;;;;;12.00;5.13;;;13.00;55.00;;;;;;4954318;29;20031;-80
2022/03/10 10:58:26;;;;;;;11.90;4.80;;;13.30;53.60;;;;;;4971223;29;20052;-80
2022/03/10 11:00:51;;;;;;;10.02;4.45;;;13.50;53.10;;;;;;4969885;28;20054;-79
2022/03/10 11:03:26;;;;;;;7.53;4.20;;;13.70;52.20;;;;;;4962637;29;20211;-81
2022/03/10 11:05:58;;;;;;;7.82;3.75;;;14.00;51.50;;;;;;4912868;29;20028;-80
2022/03/10 11:08:28;;;;;;;7.68;3.50;;;14.70;51.30;;;;;;4946497;29;20047;-80
2022/03/10 11:10:57;;;;;;;8.43;3.67;;;15.50;49.40;;;;;;4929218;29;20040;-81
2022/03/10 11:13:23;;;;;;;6.97;2.90;;;16.00;48.60;;;;;;4929293;29;20032;-80
2022/03/10 11:16:32;;;;;;;4.90;2.70;;;16.60;47.80;;;;;;4928463;29;20122;-80
2022/03/10 11:19:00;;;;;;;4.65;2.35;;;16.90;46.60;;;;;;4935529;29;20122;-79
2022/03/10 11:21:57;;;;;;;8.55;2.97;;;17.20;46.40;;;;;;4964947;29;20043;-79
2022/03/10 11:25:04;;;;;;;6.50;2.67;;;18.00;45.50;;;;;;4963915;29;20039;-79
2022/03/10 11:28:01;;;;;;;4.00;2.63;;;18.60;44.60;;;;;;4947851;29;20058;-80
2022/03/10 11:30:28;;;;;;;5.13;2.50;;;18.80;44.20;;;;;;4964319;28;20140;-79
2022/03/10 11:33:18;;;;;;;3.80;2.45;;;19.60;43.60;;;;;;4947853;29;20050;-80
2022/03/10 11:36:19;;;;;;;4.80;2.67;;;19.90;42.70;;;;;;4947760;29;20027;-80
2022/03/10 11:39:08;;;;;;;3.65;2.28;;;19.60;43.20;;;;;;4947156;29;20102;-81
2022/03/10 11:42:19;;;;;;;5.38;2.63;;;20.10;42.50;;;;;;4945282;29;20039;-80
2022/03/10 11:44:50;;;;;;;4.63;2.33;;;20.40;42.20;;;;;;4945225;29;20042;-80
2022/03/10 11:47:31;;;;;;;3.63;2.40;;;20.50;42.60;;;;;;4927706;29;20329;-79
2022/03/10 11:49:57;;;;;;;17.38;10.20;;;21.20;41.50;;;;;;4927559;29;20034;-80
2022/03/10 11:52:25;;;;;;;210.68;102.45;;;22.00;40.90;;;;;;4928226;29;20016;-81
2022/03/10 11:55:12;;;;;;;98.47;46.03;;;22.60;41.30;;;;;;4945053;29;20087;-80
2022/03/10 11:58:10;;;;;;;37.13;20.63;;;23.50;40.00;;;;;;4912417;29;20034;-79
2022/03/10 12:00:46;;;;;;;12.95;7.85;;;23.60;39.40;;;;;;4911101;29;20074;-80
2022/03/10 12:03:55;;;;;;;23.15;12.60;;;24.00;38.90;;;;;;4935810;29;20031;-80
2022/03/10 12:06:30;;;;;;;6.07;3.40;;;23.00;38.80;;;;;;4930626;29;20031;-81
2022/03/10 12:09:33;;;;;;;3.83;2.45;;;23.50;38.80;;;;;;4930031;29;20055;-80
2022/03/10 12:12:34;;;;;;;11.80;5.53;;;24.50;37.80;;;;;;4930676;29;20031;-82
2022/03/10 12:15:23;;;;;;;5.80;2.97;;;25.50;37.50;;;;;;4946258;29;20023;-79
2022/03/10 12:18:23;;;;;;;4.80;2.75;;;26.90;36.40;;;;;;4946248;29;20046;-79
2022/03/10 12:25:19;;;;;;;14.45;8.25;;;26.20;36.20;;;;;;4943914;29;20074;-81
2022/03/10 13:03:16;;;;;;;7.05;4.45;;;26.70;34.20;;;;;;4966379;23;20089;-82
2022/03/10 13:12:48;;;;;;;7.18;4.45;;;30.40;33.90;;;;;;4903368;29;20229;-80
2022/03/10 13:15:33;;;;;;;10.95;7.45;;;31.50;33.30;;;;;;4870943;29;20067;-81
2022/03/10 13:18:24;;;;;;;3.88;3.08;;;31.80;33.40;;;;;;4884776;29;20080;-80
2022/03/10 13:21:18;;;;;;;5.22;3.50;;;32.60;32.10;;;;;;4902879;29;20044;-80
2022/03/10 13:23:44;;;;;;;5.40;2.90;;;32.70;32.10;;;;;;4903570;29;20043;-78
2022/03/10 13:26:42;;;;;;;7.18;5.07;;;32.20;32.50;;;;;;4896122;29;20036;-80
2022/03/10 13:29:27;;;;;;;6.25;3.10;;;32.00;32.20;;;;;;4866426;29;20041;-80
2022/03/10 13:36:00;;;;;;;;;;;30.80;32.10;;;;;;4920245;29;20347;-81
2022/03/10 13:49:51;;;;;;;6.30;4.07;;;30.30;31.30;;;;;;4909372;29;20039;-80
2022/03/10 14:08:25;;;;;;;5.10;3.20;;;32.40;31.30;;;;;;5475270;23;20055;-80
2022/03/10 14:11:12;;;;;;;7.28;4.13;;;32.10;30.40;;;;;;4963988;29;20195;-80
2022/03/10 14:13:42;;;;;;;6.03;3.70;;;32.00;30.30;;;;;;4966802;29;20035;-79
2022/03/10 14:16:34;;;;;;;15.07;8.25;;;31.30;30.70;;;;;;4965695;28;20051;-78
2022/03/10 16:19:10;;;;;;;5.30;3.97;;;26.70;31.00;;;;;;3206719;23;20284;-81
2022/03/10 16:21:51;;;;;;;;;;;;;;;;;;;;;
2022/03/10 16:24:41;;;;;;;5.60;4.38;;;27.50;32.20;;;;;;4923796;29;20028;-80
2022/03/10 16:27:52;;;;;;;7.25;4.65;;;27.80;30.90;;;;;;4924183;29;20051;-82
2022/03/10 16:34:23;;;;;;;;;;;;;;;;;;;;;
2022/03/10 16:50:30;;;;;;;7.45;4.82;;;21.10;35.10;;;;;;4885913;29;20246;-81
2022/03/10 17:12:28;;;;;;;10.10;5.05;;;15.30;41.80;;;;;;5993627;23;20018;31
2022/03/10 17:15:20;;;;;;;10.13;5.35;;;15.00;42.20;;;;;;4907367;29;20138;-79
2022/03/10 17:18:41;;;;;;;;;;;;;;;;;;;;;
2022/03/10 18:19:19;;;;;;;10.98;5.30;;;11.80;47.40;;;;;;5156837;23;20303;-78
2022/03/10 18:21:50;;;;;;;10.65;5.70;;;11.70;47.20;;;;;;4935116;29;20266;-79
2022/03/10 18:38:48;;;;;;;10.18;5.88;;;10.90;49.50;;;;;;4966103;29;20062;-82
2022/03/10 18:41:14;;;;;;;11.88;6.72;;;10.70;49.70;;;;;;4949212;29;20133;-80
2022/03/10 18:43:43;;;;;;;15.00;6.72;;;10.70;49.80;;;;;;4949598;29;20023;-80
2022/03/10 18:46:09;;;;;;;11.70;6.40;;;10.60;50.10;;;;;;4948382;29;20042;-82
2022/03/10 18:58:47;;;;;;;13.52;6.35;;;10.00;51.50;;;;;;5676419;23;20055;-79
2022/03/10 19:01:13;;;;;;;12.07;6.25;;;9.90;51.70;;;;;;4909042;29;20060;-79
2022/03/10 19:03:43;;;;;;;11.15;6.00;;;9.80;52.00;;;;;;4909741;29;20254;-79
2022/03/10 19:06:21;;;;;;;11.43;6.40;;;9.80;52.20;;;;;;4908959;29;20023;-82
2022/03/10 19:08:51;;;;;;;10.57;6.60;;;9.70;52.30;;;;;;4909671;29;20233;-81
2022/03/10 19:11:17;;;;;;;11.88;6.80;;;9.70;52.30;;;;;;4907631;29;20111;-80
2022/03/10 19:14:05;;;;;;;14.30;7.40;;;9.60;52.70;;;;;;4909315;29;20032;-79
2022/03/10 19:16:31;;;;;;;;;;;9.50;53.00;;;;;;4909671;29;20044;-80
2022/03/10 19:19:05;;;;;;;15.40;7.38;;;9.40;53.40;;;;;;4909510;29;19993;-78
2022/03/10 19:21:31;;;;;;;14.50;8.05;;;9.20;53.50;;;;;;4909520;29;20056;-80
2022/03/10 19:28:12;;;;;;;12.65;7.15;;;9.20;53.70;;;;;;4833772;29;20041;-79
2022/03/10 19:33:31;;;;;;;12.90;6.50;;;9.10;53.40;;;;;;4865049;29;20046;-81
2022/03/10 19:36:06;;;;;;;15.20;7.20;;;9.10;53.10;;;;;;4833424;29;20090;-78
2022/03/10 19:38:46;;;;;;;;;;;;;;;;;;;;;
2022/03/10 19:45:09;;;;;;;14.63;7.20;;;8.90;53.50;;;;;;4830753;29;20035;-79
2022/03/10 19:51:26;;;;;;;13.95;7.22;;;8.90;53.10;;;;;;4812039;29;20045;-81
2022/03/10 19:54:01;;;;;;;12.82;6.97;;;8.70;53.30;;;;;;4797411;29;20050;-81
2022/03/10 19:56:34;;;;;;;11.65;6.78;;;8.60;53.50;;;;;;4813022;29;20072;-80
2022/03/10 19:59:06;;;;;;;11.75;6.85;;;8.50;53.30;;;;;;4813579;29;20344;-79
2022/03/10 20:05:21;;;;;;;12.75;7.50;;;8.30;54.20;;;;;;4847366;29;20063;-81
2022/03/10 20:12:31;;;;;;;;;;;;;;;;;;;;;
2022/03/10 20:15:29;;;;;;;13.13;6.63;;;7.90;55.00;;;;;;4815011;29;20056;-80
2022/03/10 20:17:57;;;;;;;14.00;7.38;;;7.90;55.00;;;;;;4815249;29;20050;-80
2022/03/10 20:20:23;;;;;;;14.70;7.32;;;7.80;55.10;;;;;;4817446;29;20383;-80
2022/03/10 20:22:49;;;;;;;12.98;6.40;;;7.70;54.90;;;;;;4850289;29;20142;-80
2022/03/10 20:25:21;;;;;;;13.05;6.90;;;7.70;55.70;;;;;;4851232;29;20543;-81
2022/03/10 20:28:13;;;;;;;14.20;7.28;;;7.60;55.10;;;;;;4851821;29;20065;-80
2022/03/10 20:30:39;;;;;;;13.27;6.55;;;7.70;55.30;;;;;;4850479;29;20065;-80
2022/03/10 20:33:05;;;;;;;14.15;6.25;;;7.60;54.80;;;;;;4847797;29;20049;-81
2022/03/10 20:35:32;;;;;;;9.95;5.72;;;7.50;54.80;;;;;;4860013;29;20223;-80
2022/03/10 20:38:10;;;;;;;14.10;5.50;;;7.50;54.90;;;;;;4877499;29;20111;-81
2022/03/10 20:40:36;;;;;;;13.23;6.30;;;7.60;54.70;;;;;;4893029;29;20037;-78
2022/03/10 20:43:02;;;;;;;12.98;5.88;;;7.40;54.60;;;;;;4877268;29;20055;-81
2022/03/10 20:45:28;;;;;;;11.60;5.70;;;7.30;54.90;;;;;;4907900;29;20036;-82
2022/03/10 20:48:06;;;;;;;10.35;5.38;;;7.20;55.30;;;;;;4893258;29;20072;-81
2022/03/10 20:50:33;;;;;;;10.77;5.68;;;7.20;55.60;;;;;;4892234;29;20051;-80
2022/03/10 20:53:02;;;;;;;13.50;6.00;;;7.10;55.40;;;;;;4891554;29;20056;-80
2022/03/10 20:55:28;;;;;;;10.93;6.07;;;7.10;55.80;;;;;;4891839;29;20043;-80
2022/03/10 20:57:54;;;;;;;12.40;6.95;;;7.00;55.70;;;;;;4895610;29;20016;-79